Time;durP1;ratioP1;P1;durP2;ratioP2;P2;SDS_P1;SDS_P2;PMS_P1;PMS_P2;Temp;Humidity;BMP_temperature;BMP_pressure;BME280_temperature;BME280_humidity;BME280_pressure;Samples;Min_cycle;Max_cycle;Signal;HPM_P1;HPM_P2
2021/12/10 00:01:32;;;;;;;;;;;;;;;;;;5046032;28;19913;-75
2021/12/10 00:03:58;;;;;;;;;;;;;;;;;;5046478;28;20045;-74
2021/12/10 00:06:24;;;;;;;;;;;;;;;;;;5048388;28;19912;-75
2021/12/10 00:08:50;;;;;;;;;;;;;;;;;;5046370;28;19913;-74
2021/12/10 00:11:16;;;;;;;;;;;;;;;;;;5048300;28;19921;-75
2021/12/10 00:13:44;;;;;;;;;;;;;;;;;;5037572;28;19939;-75
2021/12/10 00:16:10;;;;;;;;;;;;;;;;;;5048322;28;19951;-75
2021/12/10 00:18:45;;;;;;;;;;;;;;;;;;5045831;28;19948;-75
2021/12/10 00:21:11;;;;;;;;;;;;;;;;;;5033690;28;20443;-74
2021/12/10 00:23:37;;;;;;;;;;;;;;;;;;5044780;28;20028;-75
2021/12/10 00:26:02;;;;;;;;;;;;;;;;;;5046149;28;20324;-75
2021/12/10 00:28:28;;;;;;;;;;;;;;;;;;5062145;28;19944;-75
2021/12/10 00:31:01;;;;;;;;;;;;;;;;;;5041685;28;19962;-75
2021/12/10 00:33:27;;;;;;;;;;;;;;;;;;5056963;28;19921;-75
2021/12/10 00:35:52;;;;;;;;;;;;;;;;;;5048302;28;19913;-75
2021/12/10 00:38:18;;;;;;;;;;;;;;;;;;5062033;28;20248;-74
2021/12/10 00:40:44;;;;;;;;;;;;;;;;;;5041049;28;19912;-74
2021/12/10 00:43:10;;;;;;;;;;;;;;;;;;5048885;28;20011;-74
2021/12/10 00:45:36;;;;;;;;;;;;;;;;;;5066459;28;19970;-75
2021/12/10 00:48:02;;;;;;;;;;;;;;;;;;5050493;28;20295;-75
2021/12/10 00:50:28;;;;;;;;;;;;;;;;;;5050253;28;19913;-74
2021/12/10 00:52:54;;;;;;;;;;;;;;;;;;5064087;28;19966;-75
2021/12/10 00:55:19;;;;;;;;;;;;;;;;;;5050374;28;20628;-75
2021/12/10 00:57:45;;;;;;;;;;;;;;;;;;5065386;28;19932;-75
2021/12/10 01:00:11;;;;;;;;;;;;;;;;;;5050185;28;19917;-75
2021/12/10 01:02:37;;;;;;;;;;;;;;;;;;5050923;28;20035;-74
2021/12/10 01:05:03;;;;;;;;;;;;;;;;;;5046911;28;19930;-75
2021/12/10 01:07:29;;;;;;;;;;;;;;;;;;5065290;28;19999;-75
2021/12/10 01:09:55;;;;;;;;;;;;;;;;;;5046070;28;19936;-75
2021/12/10 01:12:20;;;;;;;;;;;;;;;;;;5050695;28;20015;-75
2021/12/10 01:26:07;;;;;;;;;;;;;;;;;;5050875;28;20014;-75
2021/12/10 01:28:33;;;;;;;;;;;;;;;;;;5048498;28;19917;-75
2021/12/10 01:30:59;;;;;;;;;;;;;;;;;;5049784;28;19912;-74
2021/12/10 01:33:25;;;;;;;;;;;;;;;;;;5056379;28;19923;-75
2021/12/10 01:35:53;;;;;;;;;;;;;;;;;;5040565;28;19936;-74
2021/12/10 01:38:19;;;;;;;;;;;;;;;;;;5049866;28;19913;-74
2021/12/10 01:40:47;;;;;;;;;;;;;;;;;;5041344;28;20350;-75
2021/12/10 01:43:22;;;;;;;;;;;;;;;;;;5065741;28;20261;-75
2021/12/10 01:45:48;;;;;;;;;;;;;;;;;;5059441;28;19917;-75
2021/12/10 01:48:14;;;;;;;;;;;;;;;;;;5048717;28;20357;-75
2021/12/10 01:50:40;;;;;;;;;;;;;;;;;;5048149;28;19967;-74
2021/12/10 01:53:06;;;;;;;;;;;;;;;;;;5047897;28;20463;-74
2021/12/10 01:55:32;;;;;;;;;;;;;;;;;;5048413;28;20019;-75
2021/12/10 01:57:58;;;;;;;;;;;;;;;;;;5064707;28;20015;-75
2021/12/10 02:00:23;;;;;;;;;;;;;;;;;;5057807;28;19971;-75
2021/12/10 02:02:49;;;;;;;;;;;;;;;;;;5047622;28;20396;-75
2021/12/10 02:05:15;;;;;;;;;;;;;;;;;;5039258;28;19927;-74
2021/12/10 02:07:41;;;;;;;;;;;;;;;;;;5049921;28;20004;-75
2021/12/10 02:10:07;;;;;;;;;;;;;;;;;;5047988;28;20018;-75
2021/12/10 02:12:33;;;;;;;;;;;;;;;;;;5043265;28;19995;-74
2021/12/10 02:15:01;;;;;;;;;;;;;;;;;;5039641;28;19936;-74
2021/12/10 02:17:27;;;;;;;;;;;;;;;;;;5048408;28;19923;-75
2021/12/10 02:19:53;;;;;;;;;;;;;;;;;;5046694;28;20007;-74
2021/12/10 02:22:19;;;;;;;;;;;;;;;;;;5039568;28;19967;-75
2021/12/10 02:24:45;;;;;;;;;;;;;;;;;;5047261;28;20264;-75
2021/12/10 02:27:11;;;;;;;;;;;;;;;;;;5046472;28;19920;-74
2021/12/10 02:29:37;;;;;;;;;;;;;;;;;;5047928;28;20544;-74
2021/12/10 02:32:03;;;;;;;;;;;;;;;;;;5048932;28;19913;-74
2021/12/10 02:34:29;;;;;;;;;;;;;;;;;;5048372;28;19919;-74
2021/12/10 02:36:55;;;;;;;;;;;;;;;;;;5048717;28;19938;-74
2021/12/10 02:39:20;;;;;;;;;;;;;;;;;;5039733;28;20014;-74
2021/12/10 02:41:46;;;;;;;;;;;;;;;;;;5047838;28;19913;-74
2021/12/10 02:44:12;;;;;;;;;;;;;;;;;;5049241;28;19957;-74
2021/12/10 02:46:38;;;;;;;;;;;;;;;;;;5047052;28;19916;-75
2021/12/10 02:49:04;;;;;;;;;;;;;;;;;;5039586;28;19924;-74
2021/12/10 02:51:31;;;;;;;;;;;;;;;;;;5045910;28;19913;-75
2021/12/10 02:53:59;;;;;;;;;;;;;;;;;;5046081;28;19912;-74
2021/12/10 02:56:25;;;;;;;;;;;;;;;;;;5048220;28;19913;-74
2021/12/10 02:58:51;;;;;;;;;;;;;;;;;;5040385;28;19924;-75
2021/12/10 03:01:16;;;;;;;;;;;;;;;;;;5047922;28;19920;-74
2021/12/10 03:03:42;;;;;;;;;;;;;;;;;;5047636;28;19920;-74
2021/12/10 03:06:11;;;;;;;;;;;;;;;;;;5047973;28;19920;-75
2021/12/10 03:08:36;;;;;;;;;;;;;;;;;;5064465;28;20242;-74
2021/12/10 03:11:02;;;;;;;;;;;;;;;;;;5048016;28;20027;-75
2021/12/10 03:13:28;;;;;;;;;;;;;;;;;;5048534;28;20344;-75
2021/12/10 03:15:54;;;;;;;;;;;;;;;;;;5046313;28;19923;-74
2021/12/10 03:18:20;;;;;;;;;;;;;;;;;;5045215;28;19967;-74
2021/12/10 03:20:46;;;;;;;;;;;;;;;;;;5046833;28;20007;-74
2021/12/10 03:23:12;;;;;;;;;;;;;;;;;;5031609;28;19969;-74
2021/12/10 03:25:38;;;;;;;;;;;;;;;;;;5063925;28;19913;-74
2021/12/10 03:28:04;;;;;;;;;;;;;;;;;;5047892;28;19913;-74
2021/12/10 03:30:29;;;;;;;;;;;;;;;;;;5047745;28;20413;-74
2021/12/10 03:32:55;;;;;;;;;;;;;;;;;;5047304;28;20667;-75
2021/12/10 03:35:23;;;;;;;;;;;;;;;;;;5047818;28;19912;-75
2021/12/10 03:37:48;;;;;;;;;;;;;;;;;;5048002;28;20015;-74
2021/12/10 03:40:14;;;;;;;;;;;;;;;;;;5048820;28;20004;-74
2021/12/10 03:42:40;;;;;;;;;;;;;;;;;;5042559;28;20397;-74
2021/12/10 03:45:06;;;;;;;;;;;;;;;;;;5049747;28;19917;-74
2021/12/10 03:47:32;;;;;;;;;;;;;;;;;;5041521;28;19919;-75
2021/12/10 03:49:58;;;;;;;;;;;;;;;;;;5039790;28;19913;-74
2021/12/10 03:52:24;;;;;;;;;;;;;;;;;;5039268;28;19963;-75
2021/12/10 03:54:49;;;;;;;;;;;;;;;;;;5039511;28;20133;-74
2021/12/10 03:57:15;;;;;;;;;;;;;;;;;;5063168;28;20365;-74
2021/12/10 03:59:41;;;;;;;;;;;;;;;;;;5044406;28;19958;-75
2021/12/10 04:02:07;;;;;;;;;;;;;;;;;;5059256;28;20528;-74
2021/12/10 04:04:33;;;;;;;;;;;;;;;;;;5041709;28;19920;-74
2021/12/10 04:06:59;;;;;;;;;;;;;;;;;;5044084;28;19924;-74
2021/12/10 04:09:25;;;;;;;;;;;;;;;;;;5047670;28;19929;-74
2021/12/10 04:11:51;;;;;;;;;;;;;;;;;;5043442;28;20242;-74
2021/12/10 04:14:16;;;;;;;;;;;;;;;;;;5038704;28;19925;-74
2021/12/10 04:16:42;;;;;;;;;;;;;;;;;;5061150;28;19935;-74
2021/12/10 04:19:08;;;;;;;;;;;;;;;;;;5048286;28;19920;-75
2021/12/10 04:21:39;;;;;;;;;;;;;;;;;;5051265;28;19916;-74
2021/12/10 04:24:05;;;;;;;;;;;;;;;;;;5049588;28;20023;-74
2021/12/10 04:26:31;;;;;;;;;;;;;;;;;;5048399;28;20007;-74
2021/12/10 04:28:57;;;;;;;;;;;;;;;;;;5050451;28;19913;-74
2021/12/10 04:31:23;;;;;;;;;;;;;;;;;;5049973;28;20647;-73
2021/12/10 04:33:49;;;;;;;;;;;;;;;;;;5052074;28;19912;-74
2021/12/10 04:36:16;;;;;;;;;;;;;;;;;;5065682;28;19920;-74
2021/12/10 04:38:43;;;;;;;;;;;;;;;;;;5059060;28;19944;-75
2021/12/10 04:41:09;;;;;;;;;;;;;;;;;;5057416;28;19958;-75
2021/12/10 04:43:34;;;;;;;;;;;;;;;;;;5065555;28;20599;-74
2021/12/10 04:46:00;;;;;;;;;;;;;;;;;;5046992;28;19927;-74
2021/12/10 04:48:26;;;;;;;;;;;;;;;;;;5065836;28;19921;-74
2021/12/10 04:50:52;;;;;;;;;;;;;;;;;;5066458;28;20371;-74
2021/12/10 04:53:19;;;;;;;;;;;;;;;;;;5048819;28;19912;-74
2021/12/10 04:55:45;;;;;;;;;;;;;;;;;;5066304;28;19991;-74
2021/12/10 04:58:11;;;;;;;;;;;;;;;;;;5050277;28;19967;-74
2021/12/10 05:00:37;;;;;;;;;;;;;;;;;;5050603;28;20257;-74
2021/12/10 05:03:05;;;;;;;;;;;;;;;;;;5040704;28;19912;-74
2021/12/10 05:05:31;;;;;;;;;;;;;;;;;;5065264;28;19925;-75
2021/12/10 05:07:57;;;;;;;;;;;;;;;;;;5050105;28;19971;-74
2021/12/10 05:10:23;;;;;;;;;;;;;;;;;;5050691;28;19952;-74
2021/12/10 05:12:48;;;;;;;;;;;;;;;;;;5049386;28;20007;-74
2021/12/10 05:15:20;;;;;;;;;;;;;;;;;;5066286;28;19966;-75
2021/12/10 05:17:48;;;;;;;;;;;;;;;;;;5048588;28;20015;-73
2021/12/10 05:20:14;;;;;;;;;;;;;;;;;;5064227;28;19916;-74
2021/12/10 05:22:39;;;;;;;;;;;;;;;;;;5063681;28;19983;-75
2021/12/10 05:25:05;;;;;;;;;;;;;;;;;;5049871;28;19952;-74
2021/12/10 05:27:33;;;;;;;;;;;;;;;;;;5050110;28;19966;-74
2021/12/10 05:29:59;;;;;;;;;;;;;;;;;;5042233;28;20595;-74
2021/12/10 05:32:24;;;;;;;;;;;;;;;;;;5046260;28;19913;-74
2021/12/10 05:34:50;;;;;;;;;;;;;;;;;;5048150;28;19913;-74
2021/12/10 05:37:18;;;;;;;;;;;;;;;;;;5059063;28;19920;-75
2021/12/10 05:39:44;;;;;;;;;;;;;;;;;;5041896;28;19959;-74
2021/12/10 05:42:09;;;;;;;;;;;;;;;;;;5048824;28;19913;-74
2021/12/10 05:44:38;;;;;;;;;;;;;;;;;;5032809;28;19913;-74
2021/12/10 05:47:04;;;;;;;;;;;;;;;;;;5048576;28;20054;-75
2021/12/10 05:49:30;;;;;;;;;;;;;;;;;;5065872;28;19913;-73
2021/12/10 05:51:56;;;;;;;;;;;;;;;;;;5043287;28;19917;-75
2021/12/10 05:54:22;;;;;;;;;;;;;;;;;;5049621;28;19920;-74
2021/12/10 05:56:48;;;;;;;;;;;;;;;;;;5047818;28;19917;-74
2021/12/10 05:59:13;;;;;;;;;;;;;;;;;;5049326;28;19964;-74
2021/12/10 06:01:39;;;;;;;;;;;;;;;;;;5049754;28;19920;-75
2021/12/10 06:04:05;;;;;;;;;;;;;;;;;;5062604;28;19975;-74
2021/12/10 06:06:31;;;;;;;;;;;;;;;;;;5064674;28;19920;-74
2021/12/10 06:08:57;;;;;;;;;;;;;;;;;;5064329;28;19917;-75
2021/12/10 06:11:23;;;;;;;;;;;;;;;;;;5064784;28;20411;-75
2021/12/10 06:13:49;;;;;;;;;;;;;;;;;;5049805;28;19912;-75
2021/12/10 06:16:14;;;;;;;;;;;;;;;;;;5049147;28;19939;-74
2021/12/10 06:18:40;;;;;;;;;;;;;;;;;;5064536;28;20015;-74
2021/12/10 06:21:06;;;;;;;;;;;;;;;;;;5064840;28;19917;-74
2021/12/10 06:23:32;;;;;;;;;;;;;;;;;;5063146;28;19913;-74
2021/12/10 06:25:58;;;;;;;;;;;;;;;;;;5046961;28;19908;-74
2021/12/10 06:28:24;;;;;;;;;;;;;;;;;;5036716;28;19963;-74
2021/12/10 06:30:50;;;;;;;;;;;;;;;;;;5049362;28;20293;-75
2021/12/10 06:33:16;;;;;;;;;;;;;;;;;;5064124;28;19986;-75
2021/12/10 06:35:42;;;;;;;;;;;;;;;;;;5064227;28;20456;-74
2021/12/10 06:38:08;;;;;;;;;;;;;;;;;;5063730;28;19931;-74
2021/12/10 06:40:33;;;;;;;;;;;;;;;;;;5046715;28;19917;-74
2021/12/10 06:43:00;;;;;;;;;;;;;;;;;;5038849;28;19919;-75
2021/12/10 06:45:26;;;;;;;;;;;;;;;;;;5049614;28;19917;-74
2021/12/10 06:47:55;;;;;;;;;;;;;;;;;;5043487;28;19912;-75
2021/12/10 06:50:25;;;;;;;;;;;;;;;;;;5043528;28;19920;-74
2021/12/10 06:52:51;;;;;;;;;;;;;;;;;;5059829;28;19909;-74
2021/12/10 06:55:16;;;;;;;;;;;;;;;;;;5063334;28;19962;-75
2021/12/10 06:57:42;;;;;;;;;;;;;;;;;;5048011;28;19917;-74
2021/12/10 07:00:08;;;;;;;;;;;;;;;;;;5040790;28;20019;-74
2021/12/10 07:02:34;;;;;;;;;;;;;;;;;;5048012;28;20473;-74
2021/12/10 07:05:00;;;;;;;;;;;;;;;;;;5048229;28;20035;-74
2021/12/10 07:07:26;;;;;;;;;;;;;;;;;;5047986;28;19921;-75
2021/12/10 07:09:52;;;;;;;;;;;;;;;;;;5044128;28;19967;-75
2021/12/10 07:12:19;;;;;;;;;;;;;;;;;;5059337;28;20488;-74
2021/12/10 07:14:45;;;;;;;;;;;;;;;;;;5049064;28;19966;-75
2021/12/10 07:17:11;;;;;;;;;;;;;;;;;;5047567;28;20011;-74
2021/12/10 07:19:37;;;;;;;;;;;;;;;;;;5047881;28;19913;-75
2021/12/10 07:22:03;;;;;;;;;;;;;;;;;;5043778;28;19920;-74
2021/12/10 07:24:29;;;;;;;;;;;;;;;;;;5048100;28;19991;-74
2021/12/10 07:26:55;;;;;;;;;;;;;;;;;;5048212;28;20360;-74
2021/12/10 07:29:21;;;;;;;;;;;;;;;;;;5048138;28;19916;-74
2021/12/10 07:31:47;;;;;;;;;;;;;;;;;;5056692;28;20264;-74
2021/12/10 07:34:13;;;;;;;;;;;;;;;;;;5061585;28;20038;-74
2021/12/10 07:36:38;;;;;;;;;;;;;;;;;;5048040;28;19920;-74
2021/12/10 07:39:04;;;;;;;;;;;;;;;;;;5046662;28;19917;-74
2021/12/10 07:41:30;;;;;;;;;;;;;;;;;;5046181;28;20352;-75
2021/12/10 07:43:56;;;;;;;;;;;;;;;;;;5062496;28;19996;-74
2021/12/10 07:46:22;;;;;;;;;;;;;;;;;;5048365;28;20362;-74
2021/12/10 07:48:49;;;;;;;;;;;;;;;;;;5045603;28;19995;-75
2021/12/10 07:51:15;;;;;;;;;;;;;;;;;;5063867;28;19920;-75
2021/12/10 07:53:41;;;;;;;;;;;;;;;;;;5046949;28;19956;-74
2021/12/10 07:56:07;;;;;;;;;;;;;;;;;;5067792;28;19956;-73
2021/12/10 07:58:32;;;;;;;;;;;;;;;;;;5050030;28;20351;-73
2021/12/10 08:00:58;;;;;;;;;;;;;;;;;;5050573;28;19979;-74
2021/12/10 08:03:25;;;;;;;;;;;;;;;;;;5049523;28;20895;-74
2021/12/10 08:05:51;;;;;;;;;;;;;;;;;;5048204;28;19928;-74
2021/12/10 08:08:17;;;;;;;;;;;;;;;;;;5047122;28;20552;-75
2021/12/10 08:10:42;;;;;;;;;;;;;;;;;;5066466;28;19919;-74
2021/12/10 08:13:08;;;;;;;;;;;;;;;;;;5050016;28;19913;-74
2021/12/10 08:15:34;;;;;;;;;;;;;;;;;;5049781;28;20051;-74
2021/12/10 08:18:00;;;;;;;;;;;;;;;;;;5045187;28;19925;-78
2021/12/10 08:20:26;;;;;;;;;;;;;;;;;;5048540;28;19917;-74
2021/12/10 08:22:52;;;;;;;;;;;;;;;;;;5049604;28;19924;-74
2021/12/10 08:25:18;;;;;;;;;;;;;;;;;;5051462;28;19920;-73
2021/12/10 08:27:44;;;;;;;;;;;;;;;;;;5045989;28;20537;-74
2021/12/10 08:30:10;;;;;;;;;;;;;;;;;;5046973;28;19920;-75
2021/12/10 08:32:35;;;;;;;;;;;;;;;;;;5047503;28;20258;-74
2021/12/10 08:35:01;;;;;;;;;;;;;;;;;;5050326;28;19927;-74
2021/12/10 08:37:27;;;;;;;;;;;;;;;;;;5041566;28;19917;-74
2021/12/10 08:39:53;;;;;;;;;;;;;;;;;;5060990;28;20486;-74
2021/12/10 08:42:22;;;;;;;;;;;;;;;;;;5050368;28;19913;-75
2021/12/10 08:44:48;;;;;;;;;;;;;;;;;;5040033;28;19917;-75
2021/12/10 08:47:15;;;;;;;;;;;;;;;;;;5049279;28;19940;-73
2021/12/10 08:49:40;;;;;;;;;;;;;;;;;;5043564;28;19927;-73
2021/12/10 08:52:08;;;;;;;;;;;;;;;;;;5040377;28;19917;-75
2021/12/10 08:54:34;;;;;;;;;;;;;;;;;;5043682;28;20618;-76
2021/12/10 08:57:00;;;;;;;;;;;;;;;;;;5048409;28;19917;-75
2021/12/10 08:59:26;;;;;;;;;;;;;;;;;;5044549;28;19925;-73
2021/12/10 09:01:51;;;;;;;;;;;;;;;;;;5042807;28;19967;-76
2021/12/10 09:04:17;;;;;;;;;;;;;;;;;;5042115;28;19966;-74
2021/12/10 09:06:43;;;;;;;;;;;;;;;;;;5046187;28;21634;-73
2021/12/10 09:09:09;;;;;;;;;;;;;;;;;;5061252;28;19913;-74
2021/12/10 09:11:35;;;;;;;;;;;;;;;;;;5045224;28;20317;-74
2021/12/10 09:14:01;;;;;;;;;;;;;;;;;;5043518;28;19913;-75
2021/12/10 09:16:28;;;;;;;;;;;;;;;;;;5041181;28;19920;-75
2021/12/10 09:18:57;;;;;;;;;;;;;;;;;;5048118;28;19916;-74
2021/12/10 09:21:22;;;;;;;;;;;;;;;;;;5046410;28;19924;-74
2021/12/10 09:23:48;;;;;;;;;;;;;;;;;;5044318;28;20388;-75
2021/12/10 09:26:14;;;;;;;;;;;;;;;;;;5045886;28;20003;-74
2021/12/10 09:28:40;;;;;;;;;;;;;;;;;;5045736;28;20683;-75
2021/12/10 09:31:06;;;;;;;;;;;;;;;;;;5058762;28;20441;-74
2021/12/10 09:33:32;;;;;;;;;;;;;;;;;;5044216;28;19921;-75
2021/12/10 09:35:58;;;;;;;;;;;;;;;;;;5043342;28;20941;-74
2021/12/10 09:38:24;;;;;;;;;;;;;;;;;;5046549;28;19944;-74
2021/12/10 09:40:52;;;;;;;;;;;;;;;;;;5048798;28;19921;-74
2021/12/10 09:43:21;;;;;;;;;;;;;;;;;;5048147;28;19962;-75
2021/12/10 09:45:47;;;;;;;;;;;;;;;;;;5049652;28;20591;-74
2021/12/10 09:48:13;;;;;;;;;;;;;;;;;;5064594;28;19959;-74
2021/12/10 09:50:39;;;;;;;;;;;;;;;;;;5049570;28;20311;-76
2021/12/10 09:53:05;;;;;;;;;;;;;;;;;;5048229;28;19924;-75
2021/12/10 09:55:30;;;;;;;;;;;;;;;;;;5045753;28;19951;-75
2021/12/10 09:57:56;;;;;;;;;;;;;;;;;;5044585;28;19932;-75
2021/12/10 10:00:22;;;;;;;;;;;;;;;;;;5048150;28;19916;-73
2021/12/10 10:02:48;;;;;;;;;;;;;;;;;;5042212;28;19962;-75
2021/12/10 10:05:14;;;;;;;;;;;;;;;;;;5048162;28;19921;-75
2021/12/10 10:07:40;;;;;;;;;;;;;;;;;;5048523;28;19990;-75
2021/12/10 10:10:06;;;;;;;;;;;;;;;;;;5047693;28;19928;-74
2021/12/10 10:12:31;;;;;;;;;;;;;;;;;;5046963;28;19921;-74
2021/12/10 10:14:57;;;;;;;;;;;;;;;;;;5039590;28;19913;-75
2021/12/10 10:17:23;;;;;;;;;;;;;;;;;;5049699;28;20257;-75
2021/12/10 10:19:51;;;;;;;;;;;;;;;;;;5063401;28;20127;-74
2021/12/10 10:22:17;;;;;;;;;;;;;;;;;;5047259;28;20275;-75
2021/12/10 10:24:43;;;;;;;;;;;;;;;;;;5043912;28;19913;-74
2021/12/10 10:27:09;;;;;;;;;;;;;;;;;;5043785;28;20418;-74
2021/12/10 10:29:35;;;;;;;;;;;;;;;;;;5046751;28;19938;-74
2021/12/10 10:32:08;;;;;;;;;;;;;;;;;;5070351;28;20436;-74
2021/12/10 10:34:34;;;;;;;;;;;;;;;;;;5047094;28;19974;-74
2021/12/10 10:36:59;;;;;;;;;;;;;;;;;;5061037;28;19920;-75
2021/12/10 10:39:25;;;;;;;;;;;;;;;;;;5050426;28;19935;-75
2021/12/10 10:41:52;;;;;;;;;;;;;;;;;;5070301;28;19991;-75
2021/12/10 10:44:18;;;;;;;;;;;;;;;;;;5061886;28;19932;-75
2021/12/10 10:46:44;;;;;;;;;;;;;;;;;;5050265;28;19978;-74
2021/12/10 10:49:09;;;;;;;;;;;;;;;;;;5063778;28;19913;-78
2021/12/10 10:51:37;;;;;;;;;;;;;;;;;;5062792;28;19916;-75
2021/12/10 10:54:02;;;;;;;;;;;;;;;;;;5061607;28;19925;-75
2021/12/10 10:56:28;;;;;;;;;;;;;;;;;;5045649;28;20443;-74
2021/12/10 10:58:56;;;;;;;;;;;;;;;;;;5047679;28;19916;-75
2021/12/10 11:01:24;;;;;;;;;;;;;;;;;;5048451;28;20349;-75
2021/12/10 11:03:52;;;;;;;;;;;;;;;;;;5037824;28;19943;-75
2021/12/10 11:06:17;;;;;;;;;;;;;;;;;;5059414;28;20492;-74
2021/12/10 11:08:43;;;;;;;;;;;;;;;;;;5062861;28;19917;-74
2021/12/10 11:11:10;;;;;;;;;;;;;;;;;;5061596;28;19921;-75
2021/12/10 11:13:36;;;;;;;;;;;;;;;;;;5061658;28;19921;-74
2021/12/10 11:16:02;;;;;;;;;;;;;;;;;;5043896;28;20416;-73
2021/12/10 11:18:28;;;;;;;;;;;;;;;;;;5047943;28;19935;-73
2021/12/10 11:20:55;;;;;;;;;;;;;;;;;;5052169;28;19974;-74
2021/12/10 11:23:20;;;;;;;;;;;;;;;;;;5046285;28;19964;-74
2021/12/10 11:25:48;;;;;;;;;;;;;;;;;;5048372;28;19962;-73
2021/12/10 11:28:14;;;;;;;;;;;;;;;;;;5047012;28;19913;-74
2021/12/10 11:30:40;;;;;;;;;;;;;;;;;;5047043;28;19967;-76
2021/12/10 11:33:05;;;;;;;;;;;;;;;;;;5047330;28;19913;-74
2021/12/10 11:35:31;;;;;;;;;;;;;;;;;;5043939;28;19920;-74
2021/12/10 11:37:59;;;;;;;;;;;;;;;;;;5043738;28;19921;-73
2021/12/10 11:40:25;;;;;;;;;;;;;;;;;;5042401;28;20368;-73
2021/12/10 11:42:57;;;;;;;;;;;;;;;;;;5042893;28;19920;-73
2021/12/10 11:45:31;;;;;;;;;;;;;;;;;;5043957;28;20039;-73
2021/12/10 11:48:05;;;;;;;;;;;;;;;;;;5039236;28;20011;-74
2021/12/10 11:50:31;;;;;;;;;;;;;;;;;;5047085;28;20375;-74
2021/12/10 11:52:57;;;;;;;;;;;;;;;;;;5039674;28;19962;-73
2021/12/10 11:55:23;;;;;;;;;;;;;;;;;;5062512;28;19917;-74
2021/12/10 11:57:50;;;;;;;;;;;;;;;;;;5063823;28;19913;-74
2021/12/10 12:00:16;;;;;;;;;;;;;;;;;;5058086;28;20398;-74
2021/12/10 12:02:42;;;;;;;;;;;;;;;;;;5049629;28;19908;-74
2021/12/10 12:05:08;;;;;;;;;;;;;;;;;;5046477;28;19925;-73
2021/12/10 12:07:35;;;;;;;;;;;;;;;;;;5064814;28;19921;-73
2021/12/10 12:10:02;;;;;;;;;;;;;;;;;;5058597;28;20009;-74
2021/12/10 12:12:28;;;;;;;;;;;;;;;;;;5062288;28;19928;-73
2021/12/10 12:15:02;;;;;;;;;;;;;;;;;;5055369;28;19913;-75
2021/12/10 12:17:28;;;;;;;;;;;;;;;;;;5043738;28;20604;-74
2021/12/10 12:19:54;;;;;;;;;;;;;;;;;;5053528;28;20062;-73
2021/12/10 12:25:09;;;;;;;;;;;;;;;;;;5045345;28;19920;-74
2021/12/10 12:27:36;;;;;;;;;;;;;;;;;;5042501;28;19916;-74
2021/12/10 12:30:06;;;;;;;;;;;;;;;;;;5049699;28;19913;-74
2021/12/10 12:32:32;;;;;;;;;;;;;;;;;;5039647;28;19913;-74
2021/12/10 12:34:58;;;;;;;;;;;;;;;;;;5046956;28;19913;-73
2021/12/10 12:37:24;;;;;;;;;;;;;;;;;;5048160;28;19928;-73
2021/12/10 12:39:50;;;;;;;;;;;;;;;;;;5063518;28;19917;-74
2021/12/10 12:42:16;;;;;;;;;;;;;;;;;;5054191;28;19920;-75
2021/12/10 12:44:41;;;;;;;;;;;;;;;;;;5051297;28;19913;-74
2021/12/10 12:47:07;;;;;;;;;;;;;;;;;;5048909;28;19927;-75
2021/12/10 12:49:37;;;;;;;;;;;;;;;;;;5065516;28;19936;-74
2021/12/10 12:52:02;;;;;;;;;;;;;;;;;;5038070;28;19913;-73
2021/12/10 12:54:29;;;;;;;;;;;;;;;;;;5046552;28;20583;-74
2021/12/10 12:56:55;;;;;;;;;;;;;;;;;;5042152;28;20168;-75
2021/12/10 12:59:21;;;;;;;;;;;;;;;;;;5041919;28;19921;-74
2021/12/10 13:01:47;;;;;;;;;;;;;;;;;;5023397;28;20575;-74
2021/12/10 13:04:13;;;;;;;;;;;;;;;;;;5048566;28;19966;-74
2021/12/10 13:06:38;;;;;;;;;;;;;;;;;;5044842;28;19921;-74
2021/12/10 13:09:04;;;;;;;;;;;;;;;;;;5054263;28;19916;-74
2021/12/10 13:11:32;;;;;;;;;;;;;;;;;;5047526;28;19928;-74
2021/12/10 13:14:01;;;;;;;;;;;;;;;;;;5046629;28;20698;-74
2021/12/10 13:16:27;;;;;;;;;;;;;;;;;;5048369;28;20031;-74
2021/12/10 13:18:53;;;;;;;;;;;;;;;;;;5048508;28;19927;-74
2021/12/10 13:21:21;;;;;;;;;;;;;;;;;;5045423;28;19917;-74
2021/12/10 13:23:47;;;;;;;;;;;;;;;;;;5040350;28;20618;-75
2021/12/10 13:26:12;;;;;;;;;;;;;;;;;;5042397;28;19959;-74
2021/12/10 13:28:38;;;;;;;;;;;;;;;;;;5043073;28;20340;-74
2021/12/10 13:31:04;;;;;;;;;;;;;;;;;;5046990;28;19943;-74
2021/12/10 13:33:30;;;;;;;;;;;;;;;;;;5042602;28;20008;-74
2021/12/10 13:35:56;;;;;;;;;;;;;;;;;;5045740;28;20334;-75
2021/12/10 13:38:22;;;;;;;;;;;;;;;;;;5045124;28;19917;-74
2021/12/10 13:40:48;;;;;;;;;;;;;;;;;;5059996;28;19982;-71
2021/12/10 13:43:18;;;;;;;;;;;;;;;;;;5050223;28;20007;-72
2021/12/10 13:45:44;;;;;;;;;;;;;;;;;;5045303;28;19917;-70
2021/12/10 13:48:13;;;;;;;;;;;;;;;;;;5047599;28;19932;-71
2021/12/10 13:50:41;;;;;;;;;;;;;;;;;;5037446;28;20003;-71
2021/12/10 13:53:07;;;;;;;;;;;;;;;;;;5039023;28;20443;-71
2021/12/10 13:55:33;;;;;;;;;;;;;;;;;;5064220;28;19916;-71
2021/12/10 13:57:59;;;;;;;;;;;;;;;;;;5060052;28;19960;-71
2021/12/10 14:00:25;;;;;;;;;;;;;;;;;;5062440;28;19948;-71
2021/12/10 14:02:52;;;;;;;;;;;;;;;;;;5062210;28;19944;-71
2021/12/10 14:05:18;;;;;;;;;;;;;;;;;;5064303;28;19920;-71
2021/12/10 14:07:47;;;;;;;;;;;;;;;;;;5048143;28;19913;-71
2021/12/10 14:10:13;;;;;;;;;;;;;;;;;;5032802;28;19952;-71
2021/12/10 14:12:41;;;;;;;;;;;;;;;;;;5043625;28;20414;-70
2021/12/10 14:15:07;;;;;;;;;;;;;;;;;;5043872;28;20300;-70
2021/12/10 14:17:33;;;;;;;;;;;;;;;;;;5046697;28;19920;-71
2021/12/10 14:19:59;;;;;;;;;;;;;;;;;;5048978;28;20632;-71
2021/12/10 14:22:26;;;;;;;;;;;;;;;;;;5047559;28;19916;-72
2021/12/10 14:24:53;;;;;;;;;;;;;;;;;;5049174;28;19927;-71
2021/12/10 14:27:20;;;;;;;;;;;;;;;;;;5049342;28;19912;-71
2021/12/10 14:29:46;;;;;;;;;;;;;;;;;;5048880;28;19960;-71
2021/12/10 14:32:11;;;;;;;;;;;;;;;;;;5049285;28;19956;-72
2021/12/10 14:34:37;;;;;;;;;;;;;;;;;;5049295;28;19967;-71
2021/12/10 14:37:07;;;;;;;;;;;;;;;;;;5057221;28;20510;-71
2021/12/10 14:39:33;;;;;;;;;;;;;;;;;;5063920;28;19962;-71
2021/12/10 14:41:59;;;;;;;;;;;;;;;;;;5049274;28;19917;-72
2021/12/10 14:44:25;;;;;;;;;;;;;;;;;;5065022;28;19909;-72
2021/12/10 14:46:50;;;;;;;;;;;;;;;;;;5049178;28;19959;-71
2021/12/10 14:49:20;;;;;;;;;;;;;;;;;;5042924;28;20427;-72
2021/12/10 14:51:45;;;;;;;;;;;;;;;;;;5045157;28;20376;-71
2021/12/10 14:54:14;;;;;;;;;;;;;;;;;;5047621;28;19917;-72
2021/12/10 14:56:40;;;;;;;;;;;;;;;;;;5048934;28;20017;-71
2021/12/10 14:59:06;;;;;;;;;;;;;;;;;;5064465;28;20012;-71
2021/12/10 15:01:32;;;;;;;;;;;;;;;;;;5047833;28;20027;-71
2021/12/10 15:03:58;;;;;;;;;;;;;;;;;;5048647;28;19981;-71
2021/12/10 15:06:24;;;;;;;;;;;;;;;;;;5072453;28;19921;-71
2021/12/10 15:08:51;;;;;;;;;;;;;;;;;;5048679;28;20265;-71
2021/12/10 15:11:17;;;;;;;;;;;;;;;;;;5048510;28;20317;-71
2021/12/10 15:13:43;;;;;;;;;;;;;;;;;;5038859;28;19982;-72
2021/12/10 15:16:11;;;;;;;;;;;;;;;;;;5047833;28;20257;-72
2021/12/10 15:18:37;;;;;;;;;;;;;;;;;;5047415;28;20010;-72
2021/12/10 15:21:02;;;;;;;;;;;;;;;;;;5048906;28;19955;-72
2021/12/10 15:23:28;;;;;;;;;;;;;;;;;;5062169;28;20372;-72
2021/12/10 15:25:54;;;;;;;;;;;;;;;;;;5048838;28;19928;-71
2021/12/10 15:28:20;;;;;;;;;;;;;;;;;;5047667;28;19913;-71
2021/12/10 15:30:46;;;;;;;;;;;;;;;;;;5062479;28;20394;-71
2021/12/10 15:33:13;;;;;;;;;;;;;;;;;;5072591;28;19916;-72
2021/12/10 15:35:41;;;;;;;;;;;;;;;;;;5063546;28;19917;-72
2021/12/10 15:38:07;;;;;;;;;;;;;;;;;;5055809;28;19930;-71
2021/12/10 15:40:33;;;;;;;;;;;;;;;;;;5048985;28;20526;-72
2021/12/10 15:42:59;;;;;;;;;;;;;;;;;;5066571;28;20015;-71
2021/12/10 15:45:24;;;;;;;;;;;;;;;;;;5053183;28;22098;-72
2021/12/10 15:47:50;;;;;;;;;;;;;;;;;;5048697;28;20027;-72
2021/12/10 15:50:16;;;;;;;;;;;;;;;;;;5069403;28;19912;-72
2021/12/10 15:52:42;;;;;;;;;;;;;;;;;;5063442;28;19923;-71
2021/12/10 15:55:08;;;;;;;;;;;;;;;;;;5059733;28;19917;-71
2021/12/10 15:57:34;;;;;;;;;;;;;;;;;;5051859;28;19966;-73
2021/12/10 16:00:01;;;;;;;;;;;;;;;;;;5049104;28;19916;-72
2021/12/10 16:02:27;;;;;;;;;;;;;;;;;;5043672;28;19913;-71
2021/12/10 16:04:56;;;;;;;;;;;;;;;;;;5029906;28;19936;-72
2021/12/10 16:07:22;;;;;;;;;;;;;;;;;;5042921;28;19916;-71
2021/12/10 16:09:48;;;;;;;;;;;;;;;;;;5048249;28;20372;-71
2021/12/10 16:12:14;;;;;;;;;;;;;;;;;;5063259;28;19947;-73
2021/12/10 16:14:39;;;;;;;;;;;;;;;;;;5067462;28;19955;-72
2021/12/10 16:17:05;;;;;;;;;;;;;;;;;;5052092;28;19920;-71
2021/12/10 16:19:31;;;;;;;;;;;;;;;;;;5067306;28;19916;-72
2021/12/10 16:21:57;;;;;;;;;;;;;;;;;;5067482;28;19920;-72
2021/12/10 16:24:23;;;;;;;;;;;;;;;;;;5065011;28;20047;-71
2021/12/10 16:26:49;;;;;;;;;;;;;;;;;;5052034;28;19917;-71
2021/12/10 16:29:15;;;;;;;;;;;;;;;;;;5060396;28;19917;-72
2021/12/10 16:31:41;;;;;;;;;;;;;;;;;;5048826;28;20004;-71
2021/12/10 16:34:11;;;;;;;;;;;;;;;;;;5066728;28;19917;-71
2021/12/10 16:36:37;;;;;;;;;;;;;;;;;;5048428;28;20412;-72
2021/12/10 16:39:03;;;;;;;;;;;;;;;;;;5062426;28;20011;-71
2021/12/10 16:41:29;;;;;;;;;;;;;;;;;;5050059;28;20304;-70
2021/12/10 16:43:54;;;;;;;;;;;;;;;;;;5047122;28;19916;-70
2021/12/10 16:46:20;;;;;;;;;;;;;;;;;;5065802;28;20431;-72
2021/12/10 16:48:46;;;;;;;;;;;;;;;;;;5050747;28;19955;-72
2021/12/10 16:51:13;;;;;;;;;;;;;;;;;;5045338;28;20391;-72
2021/12/10 16:53:39;;;;;;;;;;;;;;;;;;5064340;28;19924;-73